Time;durP1;ratioP1;P1;durP2;ratioP2;P2;SDS_P1;SDS_P2;PMS_P1;PMS_P2;Temp;Humidity;BMP_temperature;BMP_pressure;BME280_temperature;BME280_humidity;BME280_pressure;Samples;Min_cycle;Max_cycle;Signal;HPM_P1;HPM_P2
2022/07/27 00:00:23;;;;;;;3.38;3.05;;;;;;;16.88;100.00;99477.81;4841019;29;20030;-78
2022/07/27 00:02:49;;;;;;;3.53;2.95;;;;;;;16.96;100.00;99490.38;4841252;29;20462;-79
2022/07/27 00:05:14;;;;;;;3.92;3.00;;;;;;;16.84;100.00;99476.34;4841031;29;20042;-78
2022/07/27 00:07:40;;;;;;;4.03;3.17;;;;;;;16.83;100.00;99482.59;4841034;29;20086;-78
2022/07/27 00:10:05;;;;;;;4.55;3.25;;;;;;;16.87;100.00;99498.97;4844330;29;20109;-78
2022/07/27 00:12:31;;;;;;;4.68;3.10;;;;;;;16.81;100.00;99487.13;4845012;29;20037;-78
2022/07/27 00:14:58;;;;;;;4.75;2.92;;;;;;;16.79;100.00;99488.19;4844787;29;20065;-77
2022/07/27 00:17:24;;;;;;;3.22;2.90;;;;;;;16.83;100.00;99498.34;4845058;29;20034;-79
2022/07/27 00:19:50;;;;;;;4.32;3.13;;;;;;;16.78;100.00;99499.66;4845019;29;20038;-78
2022/07/27 00:22:15;;;;;;;3.90;2.80;;;;;;;16.78;100.00;99508.41;4844785;29;20030;-78
2022/07/27 00:24:41;;;;;;;3.22;2.90;;;;;;;16.71;100.00;99494.81;4844835;29;20463;-76
2022/07/27 00:27:07;;;;;;;4.28;3.30;;;;;;;16.69;100.00;99494.09;4844432;29;20034;-76
2022/07/27 00:29:33;;;;;;;3.63;2.80;;;;;;;16.66;100.00;99499.59;4844593;29;20113;-76
2022/07/27 00:31:58;;;;;;;4.70;3.47;;;;;;;16.52;100.00;99476.13;4828200;29;20394;-76
2022/07/27 00:34:23;;;;;;;3.42;3.08;;;;;;;16.61;100.00;99496.47;4844441;29;20037;-76
2022/07/27 00:36:49;;;;;;;3.53;2.90;;;;;;;16.60;100.00;99505.31;4844603;29;20406;-76
2022/07/27 00:39:14;;;;;;;3.75;3.35;;;;;;;16.53;100.00;99498.81;4844236;29;20454;-76
2022/07/27 00:41:39;;;;;;;3.22;2.92;;;;;;;16.42;100.00;99489.06;4844366;29;20106;-76
2022/07/27 00:44:05;;;;;;;5.07;3.40;;;;;;;16.51;100.00;99515.66;4843966;29;20034;-79
2022/07/27 00:46:31;;;;;;;3.50;2.60;;;;;;;16.44;100.00;99507.38;4844228;29;20037;-79
2022/07/27 00:48:57;;;;;;;3.65;3.30;;;;;;;16.47;100.00;99515.03;4844251;29;20030;-79
2022/07/27 00:51:23;;;;;;;4.05;3.55;;;;;;;16.42;100.00;99506.66;4844083;29;20094;-79
2022/07/27 00:53:51;;;;;;;3.72;3.25;;;;;;;16.39;100.00;99509.50;4844289;29;20030;-79
2022/07/27 00:56:17;;;;;;;4.78;3.42;;;;;;;16.41;100.00;99512.84;4844204;29;20070;-76
2022/07/27 00:58:47;;;;;;;3.97;3.30;;;;;;;16.41;100.00;99512.84;4844030;29;20038;-76
2022/07/27 01:01:13;;;;;;;3.55;3.17;;;;;;;16.37;100.00;99512.25;4844021;29;20034;-76
2022/07/27 01:03:39;;;;;;;4.32;3.08;;;;;;;16.32;100.00;99508.28;4843969;29;20093;-76
2022/07/27 01:06:04;;;;;;;4.55;3.22;;;;;;;16.24;100.00;99500.09;4843914;29;20451;-76
2022/07/27 01:08:30;;;;;;;4.15;3.10;;;;;;;16.28;100.00;99515.53;4844124;29;20502;-76
2022/07/27 01:10:56;;;;;;;5.43;3.33;;;;;;;16.27;100.00;99516.50;4844049;29;20490;-76
2022/07/27 01:13:23;;;;;;;5.53;3.30;;;;;;;16.23;100.00;99512.41;4843610;29;20265;-76
2022/07/27 01:15:49;;;;;;;3.25;3.00;;;;;;;16.26;100.00;99520.06;4844062;29;20062;-76
2022/07/27 01:18:38;;;;;;;4.10;3.70;;;;;;;16.19;100.00;99510.94;4843753;29;20108;-76
2022/07/27 01:21:06;;;;;;;5.55;3.13;;;;;;;16.18;100.00;99520.63;4842923;29;20037;-76
2022/07/27 01:23:32;;;;;;;6.95;3.28;;;;;;;16.17;100.00;99524.19;4843693;29;20501;-76
2022/07/27 01:25:59;;;;;;;4.78;3.10;;;;;;;16.15;100.00;99527.88;4843636;29;20491;-76
2022/07/27 01:28:25;;;;;;;4.03;2.97;;;;;;;16.12;100.00;99509.72;4843593;29;20482;-76
2022/07/27 01:30:51;;;;;;;4.15;3.13;;;;;;;16.14;100.00;99519.16;4843778;29;20029;-77
2022/07/27 01:33:16;;;;;;;4.47;3.15;;;;;;;16.11;100.00;99522.00;4843723;29;20539;-76
2022/07/27 01:35:41;;;;;;;5.55;3.40;;;;;;;16.13;100.00;99535.03;4843625;29;20480;-76
2022/07/27 01:38:09;;;;;;;4.32;3.13;;;;;;;16.06;100.00;99518.88;4843307;29;20041;-77
2022/07/27 01:40:35;;;;;;;5.63;3.60;;;;;;;16.04;100.00;99520.75;4843657;29;20367;-77
2022/07/27 01:43:01;;;;;;;4.82;3.38;;;;;;;16.09;100.00;99534.41;4843563;29;20045;-78
2022/07/27 01:45:26;;;;;;;4.80;3.50;;;;;;;16.05;100.00;99513.72;4843138;29;20527;-77
2022/07/27 01:47:52;;;;;;;5.88;3.63;;;;;;;16.10;100.00;99524.75;4843659;29;20034;-76
2022/07/27 01:50:18;;;;;;;4.75;3.28;;;;;;;16.07;100.00;99523.19;4843138;29;20502;-76
2022/07/27 01:52:43;;;;;;;4.65;3.50;;;;;;;16.06;100.00;99520.66;4843366;29;20118;-76
2022/07/27 01:55:09;;;;;;;5.15;4.10;;;;;;;16.14;100.00;99534.09;4843308;29;20538;-77
2022/07/27 01:57:36;;;;;;;4.18;3.63;;;;;;;16.07;100.00;99517.91;4843431;29;20395;-76
2022/07/27 02:00:07;;;;;;;4.07;3.33;;;;;;;16.10;100.00;99527.38;4843269;29;20032;-75
2022/07/27 02:02:33;;;;;;;4.68;3.22;;;;;;;16.05;100.00;99518.97;4842831;29;20030;-76
2022/07/27 02:04:58;;;;;;;3.50;3.13;;;;;;;16.00;100.00;99528.97;4843010;29;20034;-76
2022/07/27 02:07:23;;;;;;;3.95;3.53;;;;;;;15.98;100.00;99525.63;4842622;29;20034;-76
2022/07/27 02:09:49;;;;;;;4.05;3.58;;;;;;;15.88;100.00;99513.13;4843033;29;20029;-76
2022/07/27 02:14:58;;;;;;;2.95;2.75;;;;;;;15.83;100.00;99522.28;4842805;29;20045;-76
2022/07/27 02:17:23;;;;;;;3.53;3.22;;;;;;;15.82;100.00;99512.72;4842456;29;20030;-76
2022/07/27 02:19:49;;;;;;;5.43;3.58;;;;;;;15.84;100.00;99522.16;4842718;29;20077;-76
2022/07/27 02:22:14;;;;;;;4.13;3.55;;;;;;;15.83;100.00;99525.75;4842375;29;20026;-75
2022/07/27 02:24:39;;;;;;;3.45;3.10;;;;;;;15.85;100.00;99534.38;4842976;29;20033;-75
2022/07/27 02:27:05;;;;;;;4.68;3.38;;;;;;;15.88;100.00;99535.91;4842998;29;20052;-76
2022/07/27 02:29:30;;;;;;;3.78;3.25;;;;;;;15.87;100.00;99536.88;4842468;29;20051;-75
2022/07/27 02:31:55;;;;;;;6.25;3.35;;;;;;;15.90;100.00;99532.25;4841633;29;20029;-75
2022/07/27 02:34:21;;;;;;;4.63;3.40;;;;;;;15.89;100.00;99530.56;4842461;29;20040;-75
2022/07/27 02:36:46;;;;;;;4.82;3.10;;;;;;;15.94;100.00;99535.50;4842330;29;20387;-75
2022/07/27 02:39:12;;;;;;;3.95;3.13;;;;;;;16.03;100.00;99547.16;4842344;29;20178;-75
2022/07/27 02:41:37;;;;;;;4.80;3.15;;;;;;;16.06;100.00;99539.91;4842296;29;20113;-75
2022/07/27 02:44:03;;;;;;;3.85;3.45;;;;;;;16.14;100.00;99550.69;4842240;29;20055;-75
2022/07/27 02:46:28;;;;;;;4.07;3.20;;;;;;;16.14;100.00;99544.59;4842100;29;20057;-75
2022/07/27 02:48:53;;;;;;;4.28;3.35;;;;;;;16.18;100.00;99543.41;4842215;29;20037;-75
2022/07/27 02:51:19;;;;;;;3.42;3.10;;;;;;;16.15;100.00;99528.72;4841735;29;20040;-75
2022/07/27 02:53:44;;;;;;;4.30;3.38;;;;;;;16.15;100.00;99533.97;4842511;29;20062;-75
2022/07/27 02:56:09;;;;;;;3.53;3.22;;;;;;;16.12;100.00;99534.19;4842014;29;20079;-75
2022/07/27 02:58:35;;;;;;;4.80;3.55;;;;;;;16.12;100.00;99525.47;4842120;29;20037;-75
2022/07/27 03:01:01;;;;;;;4.15;3.33;;;;;;;16.03;100.00;99524.34;4842036;29;20030;-75
2022/07/27 03:03:27;;;;;;;3.95;3.55;;;;;;;16.00;100.00;99534.22;4841769;29;20050;-74
2022/07/27 03:05:52;;;;;;;3.50;3.17;;;;;;;16.07;100.00;99540.72;4841758;29;20030;-75
2022/07/27 03:08:17;;;;;;;3.83;3.40;;;;;;;16.12;100.00;99539.44;4842056;29;20122;-75
2022/07/27 03:10:43;;;;;;;3.63;3.33;;;;;;;16.17;100.00;99539.13;4841737;29;20026;-75
2022/07/27 03:13:08;;;;;;;4.35;3.67;;;;;;;16.20;100.00;99534.47;4841761;29;20041;-75
2022/07/27 03:15:34;;;;;;;5.45;3.88;;;;;;;16.16;100.00;99526.94;4841496;29;20037;-75
2022/07/27 03:18:00;;;;;;;3.88;3.33;;;;;;;16.14;100.00;99532.31;4841732;29;20479;-74
2022/07/27 03:20:26;;;;;;;5.57;3.80;;;;;;;16.15;100.00;99541.03;4841357;29;20038;-75
2022/07/27 03:22:53;;;;;;;5.03;3.60;;;;;;;16.18;100.00;99544.28;4841876;29;20585;-75
2022/07/27 03:25:18;;;;;;;4.75;3.35;;;;;;;16.18;100.00;99540.78;4841412;29;20044;-75
2022/07/27 03:27:43;;;;;;;6.18;3.42;;;;;;;16.23;100.00;99541.31;4841706;29;20395;-75
2022/07/27 03:30:09;;;;;;;3.33;3.03;;;;;;;16.31;100.00;99548.66;4841593;29;20120;-75
2022/07/27 03:32:34;;;;;;;3.20;2.97;;;;;;;16.31;100.00;99548.66;4841185;29;20040;-75
2022/07/27 03:35:00;;;;;;;3.60;3.00;;;;;;;16.31;100.00;99554.75;4841398;29;20500;-76
2022/07/27 03:37:25;;;;;;;3.92;3.28;;;;;;;16.34;100.00;99540.53;4841426;29;20030;-75
2022/07/27 03:39:51;;;;;;;4.07;3.45;;;;;;;16.42;100.00;99552.16;4841574;29;20030;-75
2022/07/27 03:42:16;;;;;;;4.75;3.53;;;;;;;16.32;100.00;99527.50;4841179;29;20037;-75
2022/07/27 03:44:42;;;;;;;4.32;3.63;;;;;;;16.44;100.00;99547.66;4841173;29;20041;-75
2022/07/27 03:47:07;;;;;;;3.90;3.50;;;;;;;16.40;100.00;99537.47;4841395;29;20406;-75
2022/07/27 03:49:33;;;;;;;4.10;3.75;;;;;;;16.44;100.00;99549.44;4840875;29;20034;-75
2022/07/27 03:51:58;;;;;;;3.92;3.42;;;;;;;16.46;100.00;99550.16;4841448;29;20534;-75
2022/07/27 03:54:23;;;;;;;3.85;3.40;;;;;;;16.40;100.00;99532.22;4841185;29;20432;-75
2022/07/27 03:56:49;;;;;;;4.35;3.95;;;;;;;16.37;100.00;99532.44;4841588;29;20037;-75
2022/07/27 03:59:15;;;;;;;3.92;3.28;;;;;;;16.46;100.00;99539.66;4840980;29;20026;-76
2022/07/27 04:01:41;;;;;;;6.13;3.53;;;;;;;16.50;100.00;99549.00;4841130;29;20159;-75
2022/07/27 04:04:06;;;;;;;6.13;3.72;;;;;;;16.56;100.00;99551.19;4840766;29;20140;-75
2022/07/27 04:06:31;;;;;;;4.75;3.83;;;;;;;16.60;100.00;99559.66;4841067;29;20874;-75
2022/07/27 04:08:57;;;;;;;4.13;3.60;;;;;;;16.50;100.00;99541.09;4841190;29;20495;-74
2022/07/27 04:11:22;;;;;;;3.55;3.25;;;;;;;16.59;100.00;99553.56;4840959;29;20037;-75
2022/07/27 04:13:48;;;;;;;6.47;4.13;;;;;;;16.57;100.00;99544.13;4841105;29;20030;-75
2022/07/27 04:16:14;;;;;;;4.85;3.67;;;;;;;16.61;100.00;99550.84;4840721;29;20079;-75
2022/07/27 04:18:39;;;;;;;6.20;3.97;;;;;;;16.65;100.00;99547.88;4840932;29;20046;-75
2022/07/27 04:21:05;;;;;;;4.70;3.95;;;;;;;16.63;100.00;99541.03;4841064;29;20022;-75
2022/07/27 04:23:31;;;;;;;4.03;3.63;;;;;;;16.68;100.00;99547.63;4840747;29;20113;-75
2022/07/27 04:25:56;;;;;;;4.22;3.83;;;;;;;16.66;100.00;99551.34;4840932;29;20069;-75
2022/07/27 04:28:22;;;;;;;6.18;3.97;;;;;;;16.65;100.00;99539.16;4840765;29;20065;-75
2022/07/27 04:30:47;;;;;;;4.25;3.90;;;;;;;16.72;100.00;99548.25;4840863;29;20034;-75
2022/07/27 04:33:12;;;;;;;7.03;3.63;;;;;;;16.68;100.00;99542.38;4841036;29;20038;-75
2022/07/27 04:35:38;;;;;;;4.38;3.78;;;;;;;16.81;100.00;99546.75;4840576;29;20479;-75
2022/07/27 04:38:03;;;;;;;4.30;3.90;;;;;;;16.81;100.00;99529.22;4841203;29;20038;-75
2022/07/27 04:40:31;;;;;;;4.60;3.80;;;;;;;16.86;100.00;99531.50;4840975;29;20125;-75
2022/07/27 04:42:56;;;;;;;4.65;4.10;;;;;;;16.81;100.00;99523.97;4840942;29;20074;-75
2022/07/27 04:45:21;;;;;;;4.05;3.65;;;;;;;16.75;100.00;99513.03;4840479;29;20038;-75
2022/07/27 04:47:47;;;;;;;5.47;4.50;;;;;;;16.75;100.00;99515.66;4840722;29;20036;-75
2022/07/27 04:50:12;;;;;;;4.00;3.60;;;;;;;16.73;100.00;99523.69;4840646;29;20026;-75
2022/07/27 04:52:37;;;;;;;4.60;3.92;;;;;;;16.73;100.00;99513.16;4840636;29;20046;-75
2022/07/27 04:55:03;;;;;;;4.82;4.00;;;;;;;16.78;100.00;99523.34;4840953;29;20037;-75
2022/07/27 04:57:28;;;;;;;5.63;4.05;;;;;;;16.92;100.00;99521.34;4843985;29;20391;-75
2022/07/27 04:59:54;;;;;;;4.93;4.38;;;;;;;17.82;100.00;99526.75;4844179;29;20030;-75
2022/07/27 05:02:19;;;;;;;4.40;3.90;;;;;;;19.69;100.00;99522.78;4843943;29;20042;-75
2022/07/27 05:04:44;;;;;;;4.38;3.85;;;;;;;20.74;100.00;99540.88;4862279;29;20049;-75
2022/07/27 05:07:10;;;;;;;5.72;3.58;;;;;;;21.23;99.92;99543.47;4862548;29;20430;-75
2022/07/27 05:09:35;;;;;;;4.20;3.50;;;;;;;21.16;95.48;99552.00;4862414;29;20033;-76
2022/07/27 05:12:01;;;;;;;5.20;3.35;;;;;;;20.83;94.96;99557.72;4862533;29;20086;-76
2022/07/27 05:14:26;;;;;;;7.40;3.40;;;;;;;20.39;95.67;99558.09;4862173;29;20029;-75
2022/07/27 05:16:51;;;;;;;4.75;3.40;;;;;;;20.02;97.64;99557.00;4862365;29;20032;-75
2022/07/27 05:19:17;;;;;;;4.00;3.40;;;;;;;19.64;99.09;99546.13;4862280;29;20043;-75
2022/07/27 05:21:42;;;;;;;4.28;3.38;;;;;;;19.43;100.00;99561.16;4862226;29;20116;-75
2022/07/27 05:24:08;;;;;;;5.68;3.58;;;;;;;19.12;100.00;99545.22;4862262;29;20029;-75
2022/07/27 05:26:34;;;;;;;7.65;4.05;;;;;;;19.03;100.00;99548.63;4862045;29;20034;-75
2022/07/27 05:28:59;;;;;;;3.97;3.58;;;;;;;19.02;100.00;99540.84;4862261;29;20033;-75
2022/07/27 05:31:25;;;;;;;5.60;3.40;;;;;;;19.04;100.00;99554.75;4861899;29;20029;-75
2022/07/27 05:33:50;;;;;;;4.57;3.65;;;;;;;19.09;100.00;99552.59;4862038;29;20030;-75
2022/07/27 05:36:15;;;;;;;4.25;3.30;;;;;;;19.14;100.00;99560.94;4862065;29;20060;-76
2022/07/27 05:38:41;;;;;;;7.43;3.85;;;;;;;19.11;100.00;99556.75;4861937;29;20073;-75
2022/07/27 05:41:07;;;;;;;4.70;4.20;;;;;;;19.17;100.00;99556.25;4861953;29;20114;-76
2022/07/27 05:43:32;;;;;;;5.93;3.67;;;;;;;19.25;100.00;99558.22;4861789;29;20037;-75
2022/07/27 05:45:58;;;;;;;4.78;3.97;;;;;;;19.17;100.00;99560.69;4861888;29;20040;-76
2022/07/27 05:48:23;;;;;;;3.80;3.40;;;;;;;19.11;100.00;99562.03;4844960;29;20076;-76
2022/07/27 05:50:49;;;;;;;5.63;3.65;;;;;;;19.06;100.00;99563.41;4862027;29;20034;-75
2022/07/27 05:53:14;;;;;;;4.03;3.33;;;;;;;18.98;100.00;99579.88;4845238;29;20178;-76
2022/07/27 05:55:39;;;;;;;4.82;3.42;;;;;;;18.96;100.00;99587.06;4861537;29;20065;-76
2022/07/27 05:58:05;;;;;;;6.07;3.53;;;;;;;18.88;100.00;99589.50;4861745;29;20029;-76
2022/07/27 06:00:31;;;;;;;3.75;2.92;;;;;;;18.78;100.00;99585.94;4861373;29;20034;-76
2022/07/27 06:02:56;;;;;;;3.75;3.33;;;;;;;18.66;100.00;99583.28;4861362;29;20049;-75
2022/07/27 06:05:21;;;;;;;3.92;3.63;;;;;;;18.66;100.00;99599.13;4861477;29;20454;-76
2022/07/27 06:07:59;;;;;;;4.10;3.40;;;;;;;18.61;100.00;99596.00;4861438;29;20109;-76
2022/07/27 06:10:30;;;;;;;3.50;3.20;;;;;;;18.68;100.00;99596.38;4861339;29;20482;-76
2022/07/27 06:12:55;;;;;;;5.63;3.78;;;;;;;18.74;100.00;99589.78;4861459;29;20037;-76
2022/07/27 06:15:22;;;;;;;7.60;3.42;;;;;;;18.90;100.00;99585.75;4861132;29;20386;-76
2022/07/27 06:17:51;;;;;;;4.90;3.15;;;;;;;19.08;100.00;99591.31;4861863;29;20414;-75
2022/07/27 06:20:17;;;;;;;4.70;2.83;;;;;;;19.27;100.00;99574.81;4861432;29;20040;-77
2022/07/27 06:22:54;;;;;;;3.53;3.13;;;;;;;19.56;100.00;99588.19;4861155;29;20030;-75
2022/07/27 06:25:21;;;;;;;6.00;3.30;;;;;;;19.74;100.00;99590.25;4861195;29;20030;-76
2022/07/27 06:27:47;;;;;;;2.90;2.60;;;;;;;20.02;99.47;99597.50;4861127;29;20025;-75
2022/07/27 06:30:14;;;;;;;3.33;2.72;;;;;;;20.22;98.02;99585.16;4860976;29;20045;-75
2022/07/27 06:32:40;;;;;;;4.25;2.90;;;;;;;20.61;96.18;99603.81;4861054;29;20064;-75
2022/07/27 06:35:07;;;;;;;4.05;2.90;;;;;;;20.93;94.44;99596.44;4861167;29;20037;-75
2022/07/27 06:37:33;;;;;;;5.22;2.83;;;;;;;21.18;91.38;99584.47;4860850;29;20117;-75
2022/07/27 06:39:59;;;;;;;4.00;3.15;;;;;;;21.62;89.81;99589.31;4861162;29;20065;-75
2022/07/27 06:42:26;;;;;;;3.53;2.83;;;;;;;22.58;85.73;99587.22;4860644;29;20030;-75
2022/07/27 06:44:51;;;;;;;4.45;2.80;;;;;;;23.63;81.35;99579.31;4860970;29;20390;-76
2022/07/27 06:47:16;;;;;;;5.28;3.50;;;;;;;24.31;76.68;99593.63;4860943;29;20030;-76
2022/07/27 06:49:42;;;;;;;5.88;3.10;;;;;;;25.68;73.78;99598.50;4860639;29;20033;-76
2022/07/27 06:52:07;;;;;;;3.95;2.78;;;;;;;28.54;65.14;99607.94;4860795;29;20568;-76
2022/07/27 06:54:33;;;;;;;6.40;3.40;;;;;;;30.33;58.12;99602.16;4860523;29;20034;-76
2022/07/27 06:56:59;;;;;;;3.28;2.47;;;;;;;30.03;54.88;99596.22;4860544;29;20037;-76
2022/07/27 06:59:24;;;;;;;2.90;2.58;;;;;;;29.54;54.79;99613.25;4860793;29;20105;-76
2022/07/27 07:01:50;;;;;;;4.55;2.70;;;;;;;31.65;51.10;99602.63;4860731;29;20116;-76
2022/07/27 07:04:15;;;;;;;4.88;2.45;;;;;;;34.47;41.91;99601.97;4860409;29;20057;-76
2022/07/27 07:06:41;;;;;;;3.95;2.20;;;;;;;34.28;39.95;99604.88;4860269;29;20049;-76
2022/07/27 07:09:06;;;;;;;4.03;2.35;;;;;;;32.62;41.66;99608.97;4860438;29;20499;-74
2022/07/27 07:11:32;;;;;;;3.53;2.55;;;;;;;30.95;44.23;99594.94;4856085;29;20125;-76
2022/07/27 07:13:57;;;;;;;4.05;2.38;;;;;;;31.65;44.23;99589.16;4839591;29;20399;-76
2022/07/27 07:16:22;;;;;;;3.15;2.28;;;;;;;35.17;38.75;99581.59;4841815;29;20089;-76
2022/07/27 07:18:47;;;;;;;2.85;2.33;;;;;;;38.41;33.26;99573.34;4849761;29;20157;-75
2022/07/27 07:21:15;;;;;;;5.75;2.40;;;;;;;38.59;30.83;99572.16;4846077;29;20050;-75
2022/07/27 07:23:41;;;;;;;4.90;2.20;;;;;;;39.36;30.66;99579.13;4841525;29;20109;-75
2022/07/27 07:26:06;;;;;;;2.70;2.20;;;;;;;37.78;31.78;99585.56;4841597;29;20178;-75
2022/07/27 07:28:31;;;;;;;3.17;2.15;;;;;;;38.95;30.31;99575.25;4847914;29;20044;-75
2022/07/27 07:30:57;;;;;;;3.42;2.67;;;;;;;39.13;29.57;99584.91;4856799;29;20030;-75
2022/07/27 07:33:22;;;;;;;2.58;1.90;;;;;;;38.77;29.86;99587.34;4860051;29;20044;-76
2022/07/27 07:35:48;;;;;;;3.53;2.40;;;;;;;36.56;31.92;99578.94;4859813;29;20029;-75
2022/07/27 07:38:13;;;;;;;2.65;1.90;;;;;;;34.15;34.77;99595.06;4859891;29;20033;-75
2022/07/27 07:40:38;;;;;;;3.13;2.13;;;;;;;31.87;38.02;99584.38;4859557;29;20120;-76
2022/07/27 07:43:04;;;;;;;2.83;2.20;;;;;;;30.21;41.60;99586.81;4859529;29;20463;-75
2022/07/27 07:45:32;;;;;;;5.97;2.53;;;;;;;29.08;44.70;99604.81;4859655;29;20033;-75
2022/07/27 07:47:58;;;;;;;3.92;2.80;;;;;;;28.48;45.92;99597.94;4860291;29;20066;-75
2022/07/27 07:50:24;;;;;;;4.75;2.70;;;;;;;28.18;47.33;99595.28;4859942;29;20029;-75
2022/07/27 07:52:51;;;;;;;4.85;2.50;;;;;;;32.76;40.54;99581.69;4859690;29;20037;-75
2022/07/27 07:55:21;;;;;;;5.68;2.33;;;;;;;37.17;33.46;99595.53;4859641;29;20029;-76
2022/07/27 07:57:47;;;;;;;2.85;2.17;;;;;;;40.31;28.20;99584.53;4859754;29;20041;-75
2022/07/27 08:00:13;;;;;;;2.70;2.22;;;;;;;42.25;26.55;99580.88;4859845;29;20081;-75
2022/07/27 08:02:43;;;;;;;3.28;2.08;;;;;;;44.35;23.83;99588.81;4859205;29;20505;-76
2022/07/27 08:05:10;;;;;;;3.20;1.70;;;;;;;46.01;21.85;99588.16;4859690;29;20025;-76
2022/07/27 08:07:35;;;;;;;3.53;2.15;;;;;;;46.87;21.38;99595.59;4859506;29;20029;-76
2022/07/27 08:10:01;;;;;;;3.55;2.00;;;;;;;47.15;20.50;99598.22;4860012;29;20066;-76
2022/07/27 08:12:26;;;;;;;2.33;2.00;;;;;;;46.68;20.60;99601.28;4859822;29;20037;-76
2022/07/27 08:14:51;;;;;;;3.10;1.90;;;;;;;44.38;22.09;99598.41;4859477;29;20128;-75
2022/07/27 08:17:17;;;;;;;1.85;1.75;;;;;;;40.37;24.96;99588.94;4859711;29;20034;-75
2022/07/27 08:19:43;;;;;;;3.78;2.00;;;;;;;36.96;29.26;99594.34;4859454;29;20498;-75
2022/07/27 08:22:08;;;;;;;2.95;2.05;;;;;;;34.51;32.06;99599.59;4859616;29;20034;-76
2022/07/27 08:24:33;;;;;;;2.80;2.10;;;;;;;32.56;35.76;99599.88;4859172;29;20029;-75
2022/07/27 08:26:59;;;;;;;2.60;2.03;;;;;;;31.10;37.90;99596.59;4859663;29;20418;-75
2022/07/27 08:29:24;;;;;;;3.40;2.15;;;;;;;30.14;39.90;99602.06;4859698;29;20368;-76
2022/07/27 08:31:49;;;;;;;3.40;2.70;;;;;;;29.28;40.70;99604.97;4862260;29;20041;-75
2022/07/27 08:34:15;;;;;;;4.13;3.08;;;;;;;28.94;42.51;99609.16;4863110;29;20050;-75
2022/07/27 08:36:40;;;;;;;5.45;3.65;;;;;;;28.78;43.65;99599.53;4862868;29;20048;-75
2022/07/27 08:39:07;;;;;;;5.78;3.70;;;;;;;28.46;44.55;99614.22;4862973;29;20037;-76
2022/07/27 08:41:35;;;;;;;4.85;3.38;;;;;;;28.03;45.12;99616.72;4862973;29;20036;-76
2022/07/27 08:44:02;;;;;;;7.10;3.30;;;;;;;27.91;45.54;99626.25;4863098;29;20093;-75
2022/07/27 08:46:31;;;;;;;5.88;4.15;;;;;;;27.76;45.19;99626.22;4863404;29;20367;-75
2022/07/27 08:48:59;;;;;;;4.75;3.65;;;;;;;27.41;45.74;99618.84;4863074;29;20117;-75
2022/07/27 08:51:26;;;;;;;4.80;3.90;;;;;;;27.17;46.98;99599.31;4862855;29;20037;-75
2022/07/27 08:53:52;;;;;;;7.63;4.20;;;;;;;27.12;48.00;99612.38;4862488;29;20108;-75
2022/07/27 08:56:17;;;;;;;6.65;3.88;;;;;;;26.79;48.46;99603.75;4862799;29;20395;-75
2022/07/27 08:58:44;;;;;;;5.05;3.85;;;;;;;26.35;49.13;99609.66;4862423;29;20041;-75
2022/07/27 09:01:10;;;;;;;5.68;3.83;;;;;;;26.12;50.58;99613.09;4862809;29;20040;-75
2022/07/27 09:03:35;;;;;;;5.95;4.15;;;;;;;26.22;51.13;99625.38;4862256;29;20053;-75
2022/07/27 09:06:01;;;;;;;5.25;3.92;;;;;;;26.18;52.17;99605.38;4862435;29;20029;-75
2022/07/27 09:08:27;;;;;;;5.13;4.60;;;;;;;26.19;51.77;99617.72;4862428;29;20034;-75
2022/07/27 09:10:54;;;;;;;4.63;3.72;;;;;;;26.05;52.00;99619.28;4862136;29;20073;-75
2022/07/27 09:13:21;;;;;;;5.28;3.75;;;;;;;25.84;52.12;99627.84;4862519;29;20093;-76
2022/07/27 09:15:48;;;;;;;4.18;3.47;;;;;;;25.53;51.66;99617.00;4862127;29;20034;-75
2022/07/27 09:18:22;;;;;;;6.00;3.45;;;;;;;25.35;52.37;99620.69;4845771;29;20518;-75
2022/07/27 09:21:10;;;;;;;6.15;3.53;;;;;;;25.07;51.83;99625.50;4862099;29;20064;-75
2022/07/27 09:23:40;;;;;;;4.43;3.63;;;;;;;24.67;52.07;99617.44;4862240;29;20033;-75
2022/07/27 09:26:14;;;;;;;5.20;3.00;;;;;;;24.68;52.24;99627.91;4862333;29;20030;-75
2022/07/27 09:28:40;;;;;;;5.40;3.08;;;;;;;25.00;51.07;99621.81;4862027;29;20077;-75
2022/07/27 09:31:10;;;;;;;5.45;2.35;;;;;;;25.14;47.96;99621.19;4862084;29;20034;-75
2022/07/27 09:33:48;;;;;;;7.82;3.13;;;;;;;25.27;48.08;99612.69;4862147;29;20034;-75
2022/07/27 09:36:15;;;;;;;6.80;3.00;;;;;;;25.20;48.60;99601.03;4862489;29;20124;-75
2022/07/27 09:38:53;;;;;;;4.80;3.10;;;;;;;25.51;49.43;99616.34;4861976;29;20378;-75
2022/07/27 09:41:19;;;;;;;7.40;3.08;;;;;;;25.68;46.67;99612.66;4861533;29;20457;-76
2022/07/27 09:43:55;;;;;;;6.65;2.78;;;;;;;25.62;46.66;99608.84;4861706;29;20025;-77
2022/07/27 09:46:32;;;;;;;5.40;2.45;;;;;;;25.52;47.54;99618.84;4862058;29;20044;-78
2022/07/27 09:48:58;;;;;;;5.80;3.08;;;;;;;25.78;47.26;99623.16;4860456;29;20438;-76
2022/07/27 09:51:24;;;;;;;5.45;2.60;;;;;;;26.01;46.50;99625.97;4861715;29;20029;-77
2022/07/27 09:53:51;;;;;;;5.45;2.65;;;;;;;25.97;45.75;99616.63;4861594;29;20499;-75
2022/07/27 09:56:16;;;;;;;10.23;2.63;;;;;;;25.75;45.00;99619.00;4861630;29;20031;-75
2022/07/27 09:58:47;;;;;;;5.25;2.22;;;;;;;25.75;45.66;99618.16;4861673;29;20033;-75
2022/07/27 10:01:16;;;;;;;4.40;2.17;;;;;;;25.92;44.10;99621.66;4861594;29;20121;-75
2022/07/27 10:03:43;;;;;;;4.43;2.20;;;;;;;26.09;44.58;99612.59;4861289;29;20053;-75
2022/07/27 10:06:10;;;;;;;7.03;2.35;;;;;;;26.25;43.57;99609.88;4861561;29;20128;-75
2022/07/27 10:08:37;;;;;;;5.65;2.55;;;;;;;26.01;43.05;99615.28;4861341;29;20085;-75
2022/07/27 10:11:03;;;;;;;3.63;1.80;;;;;;;25.99;43.65;99603.94;4861634;29;20363;-75
2022/07/27 10:13:29;;;;;;;6.70;2.03;;;;;;;25.98;43.31;99600.44;4861573;29;20062;-74
2022/07/27 10:15:55;;;;;;;7.20;2.22;;;;;;;25.99;43.74;99602.09;4861151;29;20030;-75
2022/07/27 10:18:46;;;;;;;9.77;2.50;;;;;;;25.91;43.65;99604.78;4861350;29;20029;-75
2022/07/27 10:21:12;;;;;;;5.05;2.10;;;;;;;25.85;43.66;99613.47;4840114;29;20038;-75
2022/07/27 10:23:37;;;;;;;6.68;2.05;;;;;;;25.73;44.14;99610.31;4840226;29;20509;-75
2022/07/27 10:26:39;;;;;;;6.40;2.60;;;;;;;25.52;44.34;99610.00;4840315;29;20074;-75
2022/07/27 10:29:14;;;;;;;6.13;2.50;;;;;;;25.23;44.02;99607.84;4803915;29;20104;-75
2022/07/27 10:32:01;;;;;;;3.50;2.15;;;;;;;25.05;45.09;99616.00;4803726;29;20767;-75
2022/07/27 10:34:36;;;;;;;5.25;1.98;;;;;;;24.95;44.72;99608.16;4803516;29;20090;-75
2022/07/27 10:37:09;;;;;;;3.85;2.00;;;;;;;24.72;43.97;99601.78;4803581;29;20050;-75
2022/07/27 10:39:41;;;;;;;4.25;2.30;;;;;;;24.44;43.80;99603.88;4803766;29;20733;-75
2022/07/27 10:42:25;;;;;;;4.25;1.92;;;;;;;24.33;45.47;99608.47;4803453;29;20043;-74
2022/07/27 10:45:04;;;;;;;5.25;2.25;;;;;;;24.49;44.84;99602.41;4803484;29;20042;-75
2022/07/27 10:47:51;;;;;;;3.30;1.90;;;;;;;24.93;45.21;99617.31;4803645;29;20457;-75
2022/07/27 10:50:16;;;;;;;6.20;2.25;;;;;;;25.23;44.14;99614.03;4803568;29;20130;-75
2022/07/27 10:52:55;;;;;;;4.13;2.08;;;;;;;25.44;43.82;99610.84;4802723;29;20633;-75
2022/07/27 10:55:30;;;;;;;5.00;2.30;;;;;;;25.72;43.90;99613.16;4803408;29;20043;-74
2022/07/27 10:57:55;;;;;;;5.95;2.28;;;;;;;25.68;42.41;99617.16;4803200;29;20031;-75
2022/07/27 11:00:49;;;;;;;3.33;1.90;;;;;;;25.56;43.23;99627.34;4803445;29;20165;-75
2022/07/27 11:03:38;;;;;;;5.50;2.40;;;;;;;25.73;42.04;99620.97;4803319;29;20054;-75
2022/07/27 11:06:07;;;;;;;9.38;2.17;;;;;;;25.85;42.12;99608.16;4840006;29;20073;-75
2022/07/27 11:08:43;;;;;;;3.60;1.75;;;;;;;25.90;42.10;99607.63;4860598;29;20064;-75
2022/07/27 11:11:13;;;;;;;4.75;2.20;;;;;;;25.81;42.08;99609.50;4860325;29;20086;-75
2022/07/27 11:13:39;;;;;;;6.85;2.13;;;;;;;25.74;40.96;99605.81;4859829;29;20034;-75
2022/07/27 11:16:07;;;;;;;7.80;2.35;;;;;;;25.46;41.59;99606.19;4848905;29;20052;-74
2022/07/27 11:18:35;;;;;;;5.80;2.40;;;;;;;25.25;42.08;99614.69;4845450;29;20090;-75
2022/07/27 11:21:13;;;;;;;6.40;2.00;;;;;;;25.15;43.07;99614.00;4841360;29;20494;-75
2022/07/27 11:23:39;;;;;;;5.45;2.28;;;;;;;25.03;42.67;99613.50;4841743;29;20505;-74
2022/07/27 11:26:04;;;;;;;5.10;1.90;;;;;;;25.05;42.72;99616.00;4841748;29;20112;-74
2022/07/27 11:28:31;;;;;;;5.65;2.33;;;;;;;25.08;43.49;99626.31;4841563;29;20034;-74
2022/07/27 11:30:57;;;;;;;3.83;1.92;;;;;;;25.08;42.81;99634.31;4841559;29;20034;-74